createdAt,value
2022-08-28T00:01:03.899Z,3.00
2022-08-28T00:03:35.349Z,3.33
2022-08-28T00:06:06.267Z,2.90
2022-08-28T00:08:36.577Z,3.40
2022-08-28T00:11:07.297Z,4.18
2022-08-28T00:13:38.073Z,2.88
2022-08-28T00:16:11.046Z,3.05
2022-08-28T00:18:41.442Z,3.15
2022-08-28T00:21:11.618Z,3.00
2022-08-28T00:23:43.335Z,2.97
2022-08-28T00:26:34.026Z,2.97
2022-08-28T00:29:02.076Z,2.78
2022-08-28T00:31:37.623Z,3.22
2022-08-28T00:34:08.117Z,3.17
2022-08-28T00:36:39.635Z,2.60
2022-08-28T00:39:11.119Z,3.22
2022-08-28T00:41:43.625Z,3.38
2022-08-28T00:44:18.278Z,3.45
2022-08-28T00:46:52.793Z,2.92
2022-08-28T00:49:27.641Z,3.67
2022-08-28T00:52:10.798Z,3.25
2022-08-28T00:54:55.374Z,4.32
2022-08-28T00:57:31.993Z,3.35
2022-08-28T01:00:02.607Z,3.00
2022-08-28T01:02:35.901Z,2.92
2022-08-28T01:05:07.751Z,3.20
2022-08-28T01:07:38.020Z,3.20
2022-08-28T01:10:11.840Z,3.28
2022-08-28T01:15:17.608Z,4.70
2022-08-28T01:17:54.883Z,3.20
2022-08-28T01:20:28.373Z,3.85
2022-08-28T01:23:06.155Z,3.15
2022-08-28T01:25:41.019Z,3.97
2022-08-28T01:28:14.496Z,3.33
2022-08-28T01:30:47.849Z,3.72
2022-08-28T01:33:19.688Z,4.22
2022-08-28T01:35:59.480Z,3.30
2022-08-28T01:38:30.174Z,3.10
2022-08-28T01:41:03.050Z,4.13
2022-08-28T01:43:34.283Z,3.27
2022-08-28T01:46:06.531Z,3.33
2022-08-28T01:48:40.457Z,3.30
2022-08-28T01:51:11.519Z,3.40
2022-08-28T01:53:42.293Z,3.60
2022-08-28T01:56:20.134Z,3.85
2022-08-28T02:01:43.606Z,3.33
2022-08-28T02:04:14.438Z,3.80
2022-08-28T02:06:45.163Z,3.38
2022-08-28T02:09:15.496Z,3.50
2022-08-28T02:11:48.301Z,3.83
2022-08-28T02:14:18.710Z,4.03
2022-08-28T02:16:49.007Z,3.60
2022-08-28T02:19:19.124Z,3.53
2022-08-28T02:21:49.329Z,3.67
2022-08-28T02:24:20.437Z,3.63
2022-08-28T02:26:53.287Z,3.40
2022-08-28T02:29:23.744Z,4.07
2022-08-28T02:31:53.968Z,3.85
2022-08-28T02:34:25.311Z,3.47
2022-08-28T02:36:56.398Z,3.58
2022-08-28T02:39:26.622Z,3.70
2022-08-28T02:41:59.461Z,2.80
2022-08-28T02:44:29.692Z,3.10
2022-08-28T02:47:00.834Z,2.88
2022-08-28T02:49:33.062Z,3.88
2022-08-28T02:52:07.558Z,3.67
2022-08-28T02:54:38.925Z,3.08
2022-08-28T02:57:12.580Z,4.30
2022-08-28T03:02:13.821Z,3.55
2022-08-28T03:04:44.680Z,3.28
2022-08-28T03:07:15.777Z,3.33
2022-08-28T03:09:46.474Z,3.35
2022-08-28T03:12:24.200Z,3.47
2022-08-28T03:14:54.735Z,3.78
2022-08-28T03:17:25.301Z,2.95
2022-08-28T03:19:55.443Z,3.30
2022-08-28T03:22:45.787Z,3.05
2022-08-28T03:25:17.530Z,3.65
2022-08-28T03:27:50.308Z,3.60
2022-08-28T03:30:22.513Z,4.17
2022-08-28T03:32:52.996Z,3.70
2022-08-28T03:35:23.578Z,3.58
2022-08-28T03:37:53.962Z,3.30
2022-08-28T03:40:24.844Z,3.20
2022-08-28T03:42:57.836Z,3.35
2022-08-28T03:45:29.683Z,3.97
2022-08-28T03:47:59.909Z,5.30
2022-08-28T03:50:30.218Z,3.17
2022-08-28T03:53:00.726Z,3.13
2022-08-28T03:55:31.701Z,3.47
2022-08-28T03:58:04.599Z,3.38
2022-08-28T04:03:06.496Z,3.67
2022-08-28T04:05:37.771Z,4.15
2022-08-28T04:08:08.329Z,3.92
2022-08-28T04:10:39.254Z,4.00
2022-08-28T04:13:12.813Z,3.22
2022-08-28T04:15:43.929Z,4.93
2022-08-28T04:18:15.932Z,6.03
2022-08-28T04:20:46.569Z,7.45
2022-08-28T04:23:16.883Z,7.95
2022-08-28T04:25:47.027Z,7.88
2022-08-28T04:28:20.039Z,6.60
2022-08-28T04:30:50.207Z,7.35
2022-08-28T04:33:20.752Z,6.32
2022-08-28T04:35:50.904Z,4.70
2022-08-28T04:38:21.303Z,3.92
2022-08-28T04:40:51.499Z,3.40
2022-08-28T04:43:24.310Z,4.60
2022-08-28T04:45:54.602Z,3.67
2022-08-28T04:48:25.163Z,3.13
2022-08-28T04:50:55.946Z,3.33
2022-08-28T04:53:26.229Z,4.10
2022-08-28T04:55:59.115Z,4.70
2022-08-28T04:58:33.695Z,4.40
2022-08-28T05:01:09.864Z,2.92
2022-08-28T05:03:40.416Z,3.30
2022-08-28T05:06:11.536Z,3.03
2022-08-28T05:08:41.761Z,3.40
2022-08-28T05:11:14.790Z,3.15
2022-08-28T05:14:07.162Z,2.90
2022-08-28T05:16:43.847Z,3.47
2022-08-28T05:19:14.742Z,3.15
2022-08-28T05:21:45.271Z,3.47
2022-08-28T05:24:15.688Z,3.17
2022-08-28T05:26:48.310Z,2.97
2022-08-28T05:29:21.561Z,3.45
2022-08-28T05:31:53.804Z,3.10
2022-08-28T05:34:24.114Z,5.90
2022-08-28T05:36:54.329Z,4.70
2022-08-28T05:39:24.570Z,3.90
2022-08-28T05:41:54.768Z,3.17
2022-08-28T05:44:27.603Z,3.63
2022-08-28T05:46:57.792Z,3.45
2022-08-28T05:49:28.288Z,3.35
2022-08-28T05:51:58.750Z,3.50
2022-08-28T05:54:29.208Z,4.50
2022-08-28T05:56:59.441Z,3.53
2022-08-28T05:59:32.270Z,3.38
2022-08-28T06:02:04.498Z,3.53
2022-08-28T06:04:36.524Z,3.15
2022-08-28T06:07:07.183Z,3.67
2022-08-28T06:09:38.512Z,3.67
2022-08-28T06:12:11.910Z,3.95
2022-08-28T06:14:45.033Z,3.72
2022-08-28T06:17:15.194Z,3.10
2022-08-28T06:19:45.509Z,3.60
2022-08-28T06:22:15.695Z,3.17
2022-08-28T06:24:46.002Z,3.33
2022-08-28T06:27:21.240Z,3.22
2022-08-28T06:29:54.191Z,3.50
2022-08-28T06:32:24.426Z,3.08
2022-08-28T06:34:54.872Z,3.40
2022-08-28T06:37:25.102Z,3.53
2022-08-28T06:39:55.373Z,3.00
2022-08-28T06:42:25.558Z,3.47
2022-08-28T06:44:58.374Z,3.25
2022-08-28T06:47:28.668Z,3.22
2022-08-28T06:49:58.861Z,3.40
2022-08-28T06:52:29.085Z,2.90
2022-08-28T06:55:00.990Z,3.40
2022-08-28T06:57:31.867Z,3.38
2022-08-28T07:00:05.174Z,3.22
2022-08-28T07:02:35.468Z,3.47
2022-08-28T07:05:05.756Z,2.83
2022-08-28T07:07:36.313Z,3.17
2022-08-28T07:10:07.052Z,3.00
2022-08-28T07:12:37.253Z,2.83
2022-08-28T07:15:11.505Z,3.20
2022-08-28T07:17:41.731Z,2.45
2022-08-28T07:20:13.559Z,3.13
2022-08-28T07:22:44.030Z,3.97
2022-08-28T07:25:14.371Z,3.00
2022-08-28T07:27:44.697Z,3.35
2022-08-28T07:30:17.963Z,2.80
2022-08-28T07:32:51.481Z,3.13
2022-08-28T07:35:22.276Z,2.97
2022-08-28T07:37:52.555Z,3.67
2022-08-28T07:40:23.144Z,3.50
2022-08-28T07:43:05.809Z,3.05
2022-08-28T07:45:38.740Z,3.80
2022-08-28T07:48:11.614Z,2.97
2022-08-28T07:50:42.013Z,3.05
2022-08-28T07:53:12.701Z,3.15
2022-08-28T07:55:42.910Z,3.22
2022-08-28T07:58:13.363Z,2.90
2022-08-28T08:00:46.420Z,3.63
2022-08-28T08:03:18.174Z,2.90
2022-08-28T08:05:55.823Z,3.40
2022-08-28T08:08:28.583Z,2.83
2022-08-28T08:11:00.536Z,2.92
2022-08-28T08:13:33.807Z,2.85
2022-08-28T08:16:12.059Z,2.95
2022-08-28T08:18:44.423Z,2.97
2022-08-28T08:21:17.162Z,2.80
2022-08-28T08:23:47.589Z,3.13
2022-08-28T08:26:20.736Z,2.60
2022-08-28T08:31:26.571Z,2.55
2022-08-28T08:34:01.531Z,2.95
2022-08-28T08:36:35.197Z,2.95
2022-08-28T08:39:09.626Z,2.60
2022-08-28T08:41:48.411Z,3.50
2022-08-28T08:44:33.477Z,3.17
2022-08-28T08:47:19.579Z,3.13
2022-08-28T08:49:54.440Z,3.05
2022-08-28T08:52:35.394Z,3.03
2022-08-28T08:55:19.864Z,3.55
2022-08-28T08:57:54.450Z,3.00
2022-08-28T09:00:25.078Z,3.15
2022-08-28T09:03:07.729Z,3.50
2022-08-28T09:05:50.278Z,3.28
2022-08-28T09:08:29.802Z,3.37
2022-08-28T09:11:06.766Z,3.30
2022-08-28T09:13:51.809Z,3.88
2022-08-28T09:16:30.261Z,3.20
2022-08-28T09:19:04.599Z,3.35
2022-08-28T09:21:37.592Z,2.83
2022-08-28T09:26:43.334Z,3.45
2022-08-28T09:29:20.509Z,4.10
2022-08-28T09:31:50.771Z,3.55
2022-08-28T09:34:27.942Z,3.75
2022-08-28T09:36:59.871Z,3.55
2022-08-28T09:39:32.692Z,3.80
2022-08-28T09:42:30.193Z,3.35
2022-08-28T09:45:09.466Z,3.53
2022-08-28T09:47:46.665Z,3.50
2022-08-28T09:50:35.719Z,3.42
2022-08-28T09:53:22.468Z,3.05
2022-08-28T09:56:16.410Z,4.35
2022-08-28T09:58:49.864Z,3.00
2022-08-28T10:01:39.485Z,3.85
2022-08-28T10:04:43.558Z,3.47
2022-08-28T10:07:26.444Z,3.20
2022-08-28T10:10:17.444Z,3.75
2022-08-28T10:13:01.604Z,3.25
2022-08-28T10:15:43.133Z,3.40
2022-08-28T10:18:35.031Z,3.50
2022-08-28T10:21:14.163Z,3.83
2022-08-28T10:24:06.676Z,3.55
2022-08-28T10:26:43.366Z,3.50
2022-08-28T10:29:28.855Z,3.47
2022-08-28T10:32:16.983Z,3.42
2022-08-28T10:35:00.525Z,3.42
2022-08-28T10:37:45.016Z,3.67
2022-08-28T10:40:25.308Z,3.60
2022-08-28T10:43:03.356Z,4.03
2022-08-28T10:45:37.189Z,3.50
2022-08-28T10:48:14.038Z,3.80
2022-08-28T10:50:48.873Z,3.90
2022-08-28T10:53:22.299Z,3.63
2022-08-28T10:56:00.212Z,3.35
2022-08-28T10:58:31.187Z,4.00
2022-08-28T11:01:06.268Z,4.05
2022-08-28T11:03:43.549Z,4.07
2022-08-28T11:06:23.525Z,3.75
2022-08-28T11:08:57.562Z,4.10
2022-08-28T11:11:48.847Z,4.22
2022-08-28T11:14:28.467Z,3.88
2022-08-28T11:17:02.576Z,4.15
2022-08-28T11:19:59.480Z,3.95
2022-08-28T11:22:34.408Z,3.45
2022-08-28T11:25:14.091Z,2.88
2022-08-28T11:28:18.601Z,4.10
2022-08-28T11:30:50.970Z,3.72
2022-08-28T11:33:42.041Z,4.65
2022-08-28T11:36:14.301Z,3.45
2022-08-28T11:39:04.501Z,4.00
2022-08-28T11:41:38.658Z,4.53
2022-08-28T11:44:28.484Z,3.67
2022-08-28T11:47:34.105Z,4.45
2022-08-28T11:50:15.769Z,4.22
2022-08-28T11:53:14.165Z,4.18
2022-08-28T11:56:05.224Z,4.00
2022-08-28T11:58:44.325Z,3.88
2022-08-28T12:01:30.611Z,4.25
2022-08-28T12:04:07.551Z,4.38
2022-08-28T12:07:23.277Z,4.35
2022-08-28T12:09:53.605Z,4.68
2022-08-28T12:12:55.082Z,4.70
2022-08-28T12:15:42.869Z,4.60
2022-08-28T12:18:57.159Z,4.72
2022-08-28T12:24:09.069Z,4.75
2022-08-28T12:26:46.537Z,4.53
2022-08-28T12:29:30.867Z,4.85
2022-08-28T12:32:19.094Z,5.00
2022-08-28T12:35:10.800Z,4.53
2022-08-28T12:37:52.391Z,4.53
2022-08-28T12:40:26.905Z,4.65
2022-08-28T12:43:00.300Z,5.13
2022-08-28T12:45:35.004Z,4.85
2022-08-28T12:48:11.677Z,4.43
2022-08-28T12:50:44.772Z,4.78
2022-08-28T12:55:48.975Z,4.47
2022-08-28T12:58:32.304Z,4.80
2022-08-28T13:01:07.310Z,5.32
2022-08-28T13:03:46.630Z,4.95
2022-08-28T13:06:26.965Z,5.15
2022-08-28T13:09:02.494Z,5.47
2022-08-28T13:11:36.257Z,5.03
2022-08-28T13:14:08.617Z,5.10
2022-08-28T13:16:42.181Z,5.00
2022-08-28T13:19:32.053Z,4.97
2022-08-28T13:22:08.569Z,4.85
2022-08-28T13:24:45.960Z,5.32
2022-08-28T13:27:26.968Z,5.15
2022-08-28T13:30:08.327Z,4.72
2022-08-28T13:32:41.045Z,5.68
2022-08-28T13:35:30.915Z,5.35
2022-08-28T13:38:04.779Z,5.20
2022-08-28T13:40:58.887Z,5.30
2022-08-28T13:43:31.651Z,5.50
2022-08-28T13:46:02.187Z,4.50
2022-08-28T13:48:32.442Z,4.35
2022-08-28T13:51:10.409Z,4.60
2022-08-28T13:53:43.932Z,4.65
2022-08-28T13:56:15.085Z,3.72
2022-08-28T13:58:57.847Z,4.38
2022-08-28T14:01:49.067Z,3.88
2022-08-28T14:04:16.780Z,4.30
2022-08-28T14:06:47.060Z,5.00
2022-08-28T14:09:20.023Z,4.85
2022-08-28T14:11:52.111Z,5.13
2022-08-28T14:14:22.413Z,4.35
2022-08-28T14:16:55.830Z,4.78
2022-08-28T14:19:26.198Z,5.40
2022-08-28T14:21:56.497Z,4.55
2022-08-28T14:24:29.561Z,4.28
2022-08-28T14:29:31.573Z,4.43
2022-08-28T14:32:04.327Z,3.85
2022-08-28T14:34:34.925Z,4.20
2022-08-28T14:37:05.096Z,4.38
2022-08-28T14:39:37.978Z,3.92
2022-08-28T14:42:13.299Z,4.57
2022-08-28T14:44:43.631Z,4.00
2022-08-28T14:47:14.333Z,3.95
2022-08-28T14:49:44.730Z,4.80
2022-08-28T14:52:15.288Z,3.78
2022-08-28T14:54:48.303Z,4.10
2022-08-28T14:57:18.563Z,4.50
2022-08-28T14:59:48.773Z,4.18
2022-08-28T15:02:19.105Z,4.20
2022-08-28T15:04:52.347Z,4.07
2022-08-28T15:09:55.739Z,4.10
2022-08-28T15:14:57.296Z,4.03
2022-08-28T15:17:34.000Z,3.60
2022-08-28T15:20:05.055Z,3.80
2022-08-28T15:22:35.195Z,4.32
2022-08-28T15:25:09.338Z,4.30
2022-08-28T15:27:39.921Z,4.35
2022-08-28T15:30:11.715Z,4.10
2022-08-28T15:32:44.769Z,4.60
2022-08-28T15:35:16.128Z,4.47
2022-08-28T15:37:46.452Z,3.67
2022-08-28T15:40:31.883Z,3.78
2022-08-28T15:43:02.093Z,4.07
2022-08-28T15:45:32.691Z,4.45
2022-08-28T15:48:03.072Z,4.40
2022-08-28T15:50:33.498Z,4.82
2022-08-28T15:53:03.965Z,4.25
2022-08-28T15:55:39.032Z,4.18
2022-08-28T15:58:14.117Z,4.40
2022-08-28T16:00:45.032Z,3.60
2022-08-28T16:03:15.777Z,4.18
2022-08-28T16:05:49.451Z,3.90
2022-08-28T16:08:19.649Z,4.20
2022-08-28T16:10:54.617Z,4.30
2022-08-28T16:13:25.479Z,4.43
2022-08-28T16:15:55.755Z,4.07
2022-08-28T16:18:26.244Z,3.42
2022-08-28T16:20:56.503Z,3.85
2022-08-28T16:23:26.832Z,4.00
2022-08-28T16:25:59.724Z,4.65
2022-08-28T16:28:30.255Z,4.53
2022-08-28T16:31:00.757Z,4.35
2022-08-28T16:33:30.989Z,4.65
2022-08-28T16:36:04.198Z,3.92
2022-08-28T16:38:34.678Z,3.60
2022-08-28T16:41:07.668Z,3.70
2022-08-28T16:43:38.648Z,4.13
2022-08-28T16:46:13.094Z,3.22
2022-08-28T16:48:44.269Z,4.00
2022-08-28T16:51:17.084Z,3.50
2022-08-28T16:53:47.914Z,4.10
2022-08-28T16:56:21.155Z,4.75
2022-08-28T17:01:25.629Z,4.30
2022-08-28T17:03:56.859Z,4.72
2022-08-28T17:06:29.439Z,4.43
2022-08-28T17:09:00.904Z,4.25
2022-08-28T17:11:36.172Z,4.22
2022-08-28T17:14:07.909Z,5.50
2022-08-28T17:16:38.285Z,4.10
2022-08-28T17:19:08.651Z,3.85
2022-08-28T17:21:51.340Z,3.70
2022-08-28T17:24:21.729Z,3.80
2022-08-28T17:26:54.608Z,4.28
2022-08-28T17:29:24.847Z,3.22
2022-08-28T17:31:56.798Z,5.40
2022-08-28T17:34:30.228Z,5.45
2022-08-28T17:37:00.902Z,5.90
2022-08-28T17:39:31.208Z,5.18
2022-08-28T17:42:04.110Z,6.35
2022-08-28T17:44:35.410Z,6.00
2022-08-28T17:47:06.101Z,6.15
2022-08-28T17:49:36.490Z,6.60
2022-08-28T17:52:07.258Z,6.28
2022-08-28T17:54:37.605Z,6.82
2022-08-28T17:57:10.538Z,8.30
2022-08-28T17:59:40.837Z,8.95
2022-08-28T18:02:11.226Z,8.38
2022-08-28T18:04:41.524Z,8.55
2022-08-28T18:07:11.847Z,11.50
2022-08-28T18:09:42.118Z,11.60
2022-08-28T18:12:15.029Z,9.77
2022-08-28T18:14:45.489Z,10.17
2022-08-28T18:17:16.659Z,9.88
2022-08-28T18:19:47.061Z,10.35
2022-08-28T18:22:17.754Z,8.60
2022-08-28T18:24:48.313Z,8.68
2022-08-28T18:27:22.208Z,9.10
2022-08-28T18:29:52.515Z,9.43
2022-08-28T18:32:22.762Z,10.32
2022-08-28T18:34:53.087Z,10.57
2022-08-28T18:37:23.475Z,11.25
2022-08-28T18:39:54.446Z,11.43
2022-08-28T18:42:29.173Z,9.20
2022-08-28T18:45:00.136Z,9.70
2022-08-28T18:47:48.302Z,10.95
2022-08-28T18:50:22.001Z,9.85
2022-08-28T18:55:25.115Z,9.82
2022-08-28T18:57:58.319Z,10.30
2022-08-28T19:00:29.497Z,9.73
2022-08-28T19:03:00.211Z,11.32
2022-08-28T19:05:30.662Z,9.55
2022-08-28T19:08:04.119Z,11.55
2022-08-28T19:10:35.214Z,10.10
2022-08-28T19:13:08.972Z,9.90
2022-08-28T19:15:39.973Z,10.38
2022-08-28T19:18:10.281Z,10.40
2022-08-28T19:20:40.638Z,10.65
2022-08-28T19:23:15.444Z,11.18
2022-08-28T19:25:49.066Z,8.88
2022-08-28T19:28:22.046Z,9.48
2022-08-28T19:30:52.302Z,7.32
2022-08-28T19:33:22.679Z,7.22
2022-08-28T19:35:53.514Z,8.75
2022-08-28T19:38:23.789Z,8.40
2022-08-28T19:40:54.909Z,9.23
2022-08-28T19:43:41.612Z,9.00
2022-08-28T19:46:20.092Z,8.02
2022-08-28T19:48:51.762Z,7.18
2022-08-28T19:51:24.073Z,7.30
2022-08-28T19:53:58.596Z,7.07
2022-08-28T19:56:30.548Z,7.70
2022-08-28T19:59:05.110Z,7.30
2022-08-28T20:01:38.317Z,8.02
2022-08-28T20:04:13.566Z,8.10
2022-08-28T20:06:43.792Z,8.07
2022-08-28T20:09:14.331Z,8.00
2022-08-28T20:11:47.062Z,7.20
2022-08-28T20:14:21.325Z,7.40
2022-08-28T20:16:54.562Z,7.63
2022-08-28T20:19:25.030Z,6.53
2022-08-28T20:21:55.955Z,7.47
2022-08-28T20:24:26.713Z,7.45
2022-08-28T20:26:57.519Z,7.10
2022-08-28T20:29:31.024Z,7.55
2022-08-28T20:32:01.699Z,6.72
2022-08-28T20:34:32.411Z,6.63
2022-08-28T20:37:02.671Z,7.82
2022-08-28T20:39:32.974Z,7.88
2022-08-28T20:42:03.244Z,6.95
2022-08-28T20:44:36.073Z,7.60
2022-08-28T20:47:06.627Z,7.33
2022-08-28T20:49:39.392Z,7.22
2022-08-28T20:52:09.827Z,8.25
2022-08-28T20:54:42.139Z,7.70
2022-08-28T20:57:14.046Z,7.75
2022-08-28T20:59:48.253Z,7.43
2022-08-28T21:02:21.875Z,7.03
2022-08-28T21:04:52.332Z,6.53
2022-08-28T21:07:24.924Z,7.15
2022-08-28T21:10:05.087Z,7.00
2022-08-28T21:12:37.941Z,7.05
2022-08-28T21:15:14.232Z,6.90
2022-08-28T21:17:45.086Z,6.40
2022-08-28T21:20:17.724Z,7.07
2022-08-28T21:22:48.488Z,6.82
2022-08-28T21:25:19.105Z,6.28
2022-08-28T21:27:49.921Z,6.88
2022-08-28T21:30:25.636Z,6.65
2022-08-28T21:33:00.078Z,6.20
2022-08-28T21:35:30.289Z,6.70
2022-08-28T21:38:00.561Z,6.40
2022-08-28T21:40:30.872Z,6.55
2022-08-28T21:43:01.191Z,6.18
2022-08-28T21:45:34.034Z,6.50
2022-08-28T21:48:04.298Z,6.93
2022-08-28T21:50:34.515Z,5.85
2022-08-28T21:53:05.338Z,6.70
2022-08-28T21:55:35.609Z,6.07
2022-08-28T21:58:06.239Z,6.40
2022-08-28T22:00:39.117Z,6.18
2022-08-28T22:03:09.332Z,6.80
2022-08-28T22:05:40.151Z,6.38
2022-08-28T22:08:10.924Z,6.32
2022-08-28T22:10:42.970Z,6.32
2022-08-28T22:13:15.149Z,7.07
2022-08-28T22:15:49.442Z,7.35
2022-08-28T22:18:19.991Z,6.15
2022-08-28T22:21:03.077Z,6.50
2022-08-28T22:23:35.236Z,6.47
2022-08-28T22:26:07.097Z,7.47
2022-08-28T22:28:37.551Z,5.93
2022-08-28T22:31:10.330Z,6.38
2022-08-28T22:33:41.141Z,6.40
2022-08-28T22:36:12.312Z,6.30
2022-08-28T22:38:53.151Z,6.35
2022-08-28T22:41:24.272Z,6.28
2022-08-28T22:43:55.008Z,5.80
2022-08-28T22:46:28.409Z,6.38
2022-08-28T22:48:59.169Z,6.25
2022-08-28T22:51:29.412Z,6.13
2022-08-28T22:53:59.629Z,5.90
2022-08-28T22:56:29.911Z,6.43
2022-08-28T22:59:00.223Z,5.95
2022-08-28T23:01:33.171Z,7.18
2022-08-28T23:04:04.166Z,6.20
2022-08-28T23:06:35.259Z,6.68
2022-08-28T23:09:05.451Z,6.35
2022-08-28T23:11:35.687Z,6.47
2022-08-28T23:14:06.196Z,7.35
2022-08-28T23:16:39.070Z,6.55
2022-08-28T23:19:13.209Z,5.93
2022-08-28T23:21:44.642Z,6.30
2022-08-28T23:24:16.237Z,6.13
2022-08-28T23:26:47.571Z,5.93
2022-08-28T23:29:17.782Z,7.05
2022-08-28T23:31:50.679Z,6.60
2022-08-28T23:34:23.945Z,6.57
2022-08-28T23:39:25.272Z,5.97
2022-08-28T23:41:58.123Z,6.30
2022-08-28T23:44:28.499Z,6.82
2022-08-28T23:47:01.307Z,6.68
2022-08-28T23:49:32.861Z,6.43
2022-08-28T23:52:03.047Z,7.20
2022-08-28T23:54:33.242Z,6.47
2022-08-28T23:57:03.543Z,6.50
2022-08-28T23:59:35.639Z,7.25
